Time;durP1;ratioP1;P1;durP2;ratioP2;P2;SDS_P1;SDS_P2;PMS_P1;PMS_P2;Temp;Humidity;BMP_temperature;BMP_pressure;BME280_temperature;BME280_humidity;BME280_pressure;Samples;Min_cycle;Max_cycle;Signal;HPM_P1;HPM_P2
2023/01/28 06:34:31;;;;;;;9.63;7.13;;;;;;;;;;5318530;23;20227;-75
2023/01/28 06:36:58;;;;;;;9.38;6.38;;;;;;;;;;4975863;28;20223;-75
2023/01/28 06:39:25;;;;;;;11.07;6.47;;;;;;;;;;4978822;28;20207;-75
2023/01/28 06:41:53;;;;;;;6.65;5.15;;;;;;;;;;4976480;28;20650;-75
2023/01/28 06:44:21;;;;;;;6.15;5.10;;;;;;;;;;4977511;28;20223;-75
2023/01/28 06:46:48;;;;;;;12.52;6.85;;;;;;;;;;4977505;28;20196;-75
2023/01/28 06:49:15;;;;;;;9.13;6.40;;;;;;;;;;4980287;28;20206;-75
2023/01/28 06:51:43;;;;;;;9.88;6.78;;;;;;;;;;4979579;28;20204;-75
2023/01/28 06:54:10;;;;;;;7.45;5.45;;;;;;;;;;4979803;28;20670;-75
2023/01/28 06:56:37;;;;;;;9.13;6.68;;;;;;;;;;4980176;28;20199;-75
2023/01/28 06:59:04;;;;;;;6.70;5.35;;;;;;;;;;4982604;28;20207;-74
2023/01/28 07:01:31;;;;;;;12.60;7.72;;;;;;;;;;4983335;28;20207;-74
2023/01/28 07:03:59;;;;;;;10.75;7.18;;;;;;;;;;4982862;28;20273;-74
2023/01/28 07:06:26;;;;;;;19.00;11.52;;;;;;;;;;4980385;28;20203;-74
2023/01/28 07:08:54;;;;;;;8.07;5.57;;;;;;;;;;4981161;28;20211;-75
2023/01/28 07:11:21;;;;;;;8.48;5.80;;;;;;;;;;4980984;28;20211;-75
2023/01/28 07:13:48;;;;;;;6.90;6.05;;;;;;;;;;4980599;28;20223;-74
2023/01/28 07:16:15;;;;;;;7.45;5.47;;;;;;;;;;4987949;28;20199;-75
2023/01/28 07:18:42;;;;;;;5.68;5.10;;;;;;;;;;4983217;28;20219;-74
2023/01/28 07:21:09;;;;;;;5.30;4.80;;;;;;;;;;4982005;28;20199;-73
2023/01/28 07:23:38;;;;;;;18.27;14.60;;;;;;;;;;4982489;28;20227;-73
2023/01/28 07:26:07;;;;;;;8.80;7.82;;;;;;;;;;4981146;28;20207;-73
2023/01/28 07:28:34;;;;;;;7.07;6.30;;;;;;;;;;4979697;28;20206;-72
2023/01/28 07:31:01;;;;;;;6.40;5.60;;;;;;;;;;4979509;28;20412;-73
2023/01/28 07:33:28;;;;;;;5.18;4.75;;;;;;;;;;4976068;28;20219;-73
2023/01/28 07:35:55;;;;;;;6.07;5.05;;;;;;;;;;4975168;28;20219;-73
2023/01/28 07:38:22;;;;;;;5.10;4.60;;;;;;;;;;4975397;28;20215;-74
2023/01/28 07:40:49;;;;;;;7.40;4.90;;;;;;;;;;4975845;28;20254;-73
2023/01/28 07:43:17;;;;;;;6.82;5.25;;;;;;;;;;4975343;28;20223;-73
2023/01/28 07:45:44;;;;;;;4.70;4.38;;;;;;;;;;4975452;28;20211;-73
2023/01/28 07:48:13;;;;;;;7.20;5.40;;;;;;;;;;4975236;28;20625;-73
2023/01/28 07:50:40;;;;;;;4.82;4.38;;;;;;;;;;4975208;28;20250;-73
2023/01/28 07:53:08;;;;;;;5.82;5.25;;;;;;;;;;4975914;28;20207;-74
2023/01/28 07:55:35;;;;;;;4.85;4.35;;;;;;;;;;4975452;28;20200;-74
2023/01/28 07:58:03;;;;;;;6.57;4.43;;;;;;;;;;4975740;28;20252;-73
2023/01/28 08:00:33;;;;;;;5.63;5.13;;;;;;;;;;4975969;28;20203;-73
2023/01/28 08:03:01;;;;;;;6.03;5.25;;;;;;;;;;4975951;28;20670;-72
2023/01/28 08:05:31;;;;;;;9.48;6.25;;;;;;;;;;4976574;28;20204;-72
2023/01/28 08:07:58;;;;;;;7.10;5.82;;;;;;;;;;4977160;28;20599;-72
2023/01/28 08:10:26;;;;;;;5.85;4.63;;;;;;;;;;4976804;28;20207;-72
2023/01/28 08:12:53;;;;;;;4.80;4.43;;;;;;;;;;4976215;28;20211;-72
2023/01/28 08:15:20;;;;;;;6.95;4.95;;;;;;;;;;4975825;28;20610;-72
2023/01/28 08:17:48;;;;;;;5.85;4.53;;;;;;;;;;4974972;28;20222;-73
2023/01/28 08:20:16;;;;;;;5.60;5.10;;;;;;;;;;4975569;28;20238;-73
2023/01/28 08:22:43;;;;;;;4.60;4.18;;;;;;;;;;4976240;28;20211;-73
2023/01/28 08:25:10;;;;;;;6.30;5.20;;;;;;;;;;4975701;28;20234;-72
2023/01/28 08:27:37;;;;;;;5.68;5.18;;;;;;;;;;4976481;28;20196;-72
2023/01/28 08:30:05;;;;;;;5.60;5.10;;;;;;;;;;4975262;28;20215;-72
2023/01/28 08:32:32;;;;;;;8.07;5.13;;;;;;;;;;4977064;28;20587;-72
2023/01/28 08:35:01;;;;;;;5.28;4.63;;;;;;;;;;4977807;28;20710;-72
2023/01/28 08:37:28;;;;;;;5.22;4.82;;;;;;;;;;4978164;28;20226;-73
2023/01/28 08:39:55;;;;;;;6.15;4.70;;;;;;;;;;4978459;28;20210;-73
2023/01/28 08:42:22;;;;;;;6.50;5.80;;;;;;;;;;4978446;28;20678;-73
2023/01/28 08:44:49;;;;;;;7.40;5.88;;;;;;;;;;4978404;28;20227;-73
2023/01/28 08:47:16;;;;;;;7.95;6.65;;;;;;;;;;4978100;28;20207;-73
2023/01/28 08:49:43;;;;;;;6.55;5.57;;;;;;;;;;4978398;28;20208;-73
2023/01/28 08:52:11;;;;;;;7.75;5.97;;;;;;;;;;4978306;28;20258;-73
2023/01/28 08:54:38;;;;;;;10.82;7.53;;;;;;;;;;4977935;28;20227;-73
2023/01/28 08:57:05;;;;;;;13.55;8.15;;;;;;;;;;4977881;28;20266;-73
2023/01/28 08:59:32;;;;;;;7.50;6.03;;;;;;;;;;4978062;28;20207;-73
2023/01/28 09:01:59;;;;;;;6.65;5.95;;;;;;;;;;4978156;28;20336;-73
2023/01/28 09:04:26;;;;;;;7.07;5.93;;;;;;;;;;4977846;28;20248;-72
2023/01/28 09:06:54;;;;;;;11.27;7.10;;;;;;;;;;4977554;28;20213;-73
2023/01/28 09:09:23;;;;;;;7.10;6.18;;;;;;;;;;4977361;28;20196;-73
2023/01/28 09:11:50;;;;;;;5.88;5.20;;;;;;;;;;4977312;28;20204;-73
2023/01/28 09:14:17;;;;;;;8.88;5.65;;;;;;;;;;4977399;28;20223;-73
2023/01/28 09:16:44;;;;;;;5.65;4.80;;;;;;;;;;4977366;28;20218;-73
2023/01/28 09:19:11;;;;;;;7.05;5.43;;;;;;;;;;4977414;28;20278;-73
2023/01/28 09:21:39;;;;;;;6.60;5.40;;;;;;;;;;4977100;28;20214;-75
2023/01/28 09:24:07;;;;;;;5.53;5.13;;;;;;;;;;4976742;28;20227;-75
2023/01/28 09:26:35;;;;;;;6.88;6.13;;;;;;;;;;4976816;28;20204;-75
2023/01/28 09:29:02;;;;;;;5.88;4.93;;;;;;;;;;4976914;28;20568;-75
2023/01/28 09:31:29;;;;;;;6.47;5.43;;;;;;;;;;4976544;28;20207;-75
2023/01/28 09:33:56;;;;;;;7.10;5.30;;;;;;;;;;4976645;28;20231;-74
2023/01/28 09:36:23;;;;;;;5.90;5.30;;;;;;;;;;4976259;28;20219;-73
2023/01/28 09:38:51;;;;;;;8.10;6.68;;;;;;;;;;4979588;28;20298;-73
2023/01/28 09:41:26;;;;;;;6.10;5.32;;;;;;;;;;4982650;28;20282;-73
2023/01/28 09:44:05;;;;;;;5.97;5.30;;;;;;;;;;4981060;28;20286;-72
2023/01/28 09:46:34;;;;;;;6.90;5.40;;;;;;;;;;4982110;28;20199;-74
2023/01/28 09:49:03;;;;;;;7.88;5.15;;;;;;;;;;4982196;28;20200;-73
2023/01/28 09:51:33;;;;;;;6.57;5.63;;;;;;;;;;4981576;28;20583;-72
2023/01/28 09:54:02;;;;;;;10.65;7.43;;;;;;;;;;4980991;28;20274;-72
2023/01/28 09:56:31;;;;;;;8.55;6.57;;;;;;;;;;4977328;28;20212;-73
2023/01/28 09:58:58;;;;;;;7.20;5.25;;;;;;;;;;4979585;28;20220;-71
2023/01/28 10:01:36;;;;;;;5.43;4.90;;;;;;;;;;4981972;28;20210;-72
2023/01/28 10:04:07;;;;;;;6.70;6.00;;;;;;;;;;4981516;28;20234;-73
2023/01/28 10:06:42;;;;;;;7.55;6.18;;;;;;;;;;4980761;28;20707;-73
2023/01/28 10:09:19;;;;;;;6.47;5.85;;;;;;;;;;4981751;28;20183;-73
2023/01/28 10:12:03;;;;;;;6.05;4.85;;;;;;;;;;4982030;28;20639;-73
2023/01/28 10:14:38;;;;;;;7.10;6.40;;;;;;;;;;4981926;28;20243;-73
2023/01/28 10:17:11;;;;;;;7.45;6.13;;;;;;;;;;4982416;28;20549;-73
2023/01/28 10:19:41;;;;;;;5.68;5.18;;;;;;;;;;4980997;28;20211;-73
2023/01/28 10:22:13;;;;;;;6.15;5.55;;;;;;;;;;4981468;28;20280;-73
2023/01/28 10:24:43;;;;;;;9.65;5.95;;;;;;;;;;4981831;28;20219;-72
2023/01/28 10:27:13;;;;;;;7.68;6.43;;;;;;;;;;4981846;28;20632;-72
2023/01/28 10:29:44;;;;;;;6.03;5.43;;;;;;;;;;4981930;28;20218;-72
2023/01/28 10:32:17;;;;;;;6.10;4.90;;;;;;;;;;4978809;28;20199;-71
2023/01/28 10:34:44;;;;;;;5.80;5.22;;;;;;;;;;4975811;28;20253;-71
2023/01/28 10:37:13;;;;;;;6.50;5.53;;;;;;;;;;4975837;28;20219;-72
2023/01/28 10:39:40;;;;;;;8.73;5.60;;;;;;;;;;4975941;28;20219;-70
2023/01/28 10:42:17;;;;;;;7.50;5.88;;;;;;;;;;4975667;28;20206;-70
2023/01/28 10:44:45;;;;;;;5.47;5.00;;;;;;;;;;4975146;28;20223;-70
2023/01/28 10:47:15;;;;;;;7.97;5.55;;;;;;;;;;4975110;28;20686;-70
2023/01/28 10:49:48;;;;;;;5.93;5.40;;;;;;;;;;4975733;28;20199;-71
2023/01/28 10:52:17;;;;;;;7.25;5.93;;;;;;;;;;4975875;28;20196;-71
2023/01/28 10:54:44;;;;;;;6.82;6.13;;;;;;;;;;4974700;28;20223;-72
2023/01/28 10:57:13;;;;;;;8.60;7.18;;;;;;;;;;4975635;28;20207;-72
2023/01/28 10:59:41;;;;;;;8.13;6.53;;;;;;;;;;4976648;28;20584;-73
2023/01/28 11:02:21;;;;;;;6.78;6.13;;;;;;;;;;4976204;28;20206;-78
2023/01/28 11:05:01;;;;;;;8.43;6.30;;;;;;;;;;4975291;28;20765;-73
2023/01/28 11:07:28;;;;;;;8.02;6.50;;;;;;;;;;4975639;28;20278;-70
2023/01/28 11:09:55;;;;;;;9.95;7.75;;;;;;;;;;4975238;28;20662;-70
2023/01/28 11:12:23;;;;;;;9.13;7.72;;;;;;;;;;4975495;28;20215;-73
2023/01/28 11:14:51;;;;;;;7.03;6.03;;;;;;;;;;4975389;28;20303;-71
2023/01/28 11:17:19;;;;;;;6.65;5.38;;;;;;;;;;4975894;28;20281;-70
2023/01/28 11:19:46;;;;;;;9.23;6.40;;;;;;;;;;4977415;28;20219;-70
2023/01/28 11:22:21;;;;;;;9.40;6.82;;;;;;;;;;4977789;28;20191;-72
2023/01/28 11:24:48;;;;;;;11.55;7.00;;;;;;;;;;4977872;28;20227;-72
2023/01/28 11:27:17;;;;;;;7.03;6.35;;;;;;;;;;4975405;28;20191;-72
2023/01/28 11:29:44;;;;;;;9.82;7.00;;;;;;;;;;4975301;28;20211;-72
2023/01/28 11:32:19;;;;;;;8.55;7.07;;;;;;;;;;4975766;28;20187;-72
2023/01/28 11:34:49;;;;;;;10.15;7.00;;;;;;;;;;4976025;28;20223;-73
2023/01/28 11:37:21;;;;;;;9.63;6.85;;;;;;;;;;4976035;28;20238;-73
2023/01/28 11:39:48;;;;;;;9.75;6.93;;;;;;;;;;4975879;28;20299;-72
2023/01/28 11:42:17;;;;;;;11.35;7.35;;;;;;;;;;4976485;28;20199;-72
2023/01/28 11:44:44;;;;;;;11.02;8.35;;;;;;;;;;4976812;28;20227;-73
2023/01/28 11:47:16;;;;;;;11.18;7.70;;;;;;;;;;4976695;28;20605;-71
2023/01/28 11:49:50;;;;;;;12.45;8.40;;;;;;;;;;4976563;28;20188;-71
2023/01/28 11:52:23;;;;;;;9.02;7.13;;;;;;;;;;4976809;28;20191;-71
2023/01/28 11:54:57;;;;;;;11.60;8.02;;;;;;;;;;4978842;28;20227;-70
2023/01/28 11:57:24;;;;;;;9.32;6.82;;;;;;;;;;4974585;28;20192;-71
2023/01/28 11:59:57;;;;;;;11.38;8.20;;;;;;;;;;4974484;28;20254;-70
2023/01/28 12:02:44;;;;;;;13.98;8.70;;;;;;;;;;4974605;28;20207;-70
2023/01/28 12:05:22;;;;;;;13.93;9.10;;;;;;;;;;4975021;28;20227;-70
2023/01/28 12:07:55;;;;;;;10.13;7.35;;;;;;;;;;4978217;28;20191;-70
2023/01/28 12:10:25;;;;;;;10.63;7.72;;;;;;;;;;4978259;28;20211;-70
2023/01/28 12:13:00;;;;;;;8.77;7.28;;;;;;;;;;4978089;28;20230;-70
2023/01/28 12:15:48;;;;;;;10.30;6.60;;;;;;;;;;4978223;28;20187;-70
2023/01/28 12:18:20;;;;;;;10.35;8.23;;;;;;;;;;4977984;28;20239;-70
2023/01/28 12:20:51;;;;;;;10.02;7.95;;;;;;;;;;4978129;28;20195;-69
2023/01/28 12:23:25;;;;;;;8.55;6.75;;;;;;;;;;4978929;28;20587;-74
2023/01/28 12:26:07;;;;;;;9.40;7.22;;;;;;;;;;4978191;28;20183;-73
2023/01/28 12:28:43;;;;;;;11.88;8.30;;;;;;;;;;4975985;28;20323;-73
2023/01/28 12:31:18;;;;;;;11.15;8.05;;;;;;;;;;4978239;28;20278;-73
2023/01/28 12:34:03;;;;;;;9.88;7.75;;;;;;;;;;4978282;28;20226;-73
2023/01/28 12:36:34;;;;;;;13.52;8.32;;;;;;;;;;4977798;28;20218;-72
2023/01/28 12:39:10;;;;;;;10.90;8.07;;;;;;;;;;4980544;28;20211;-73
2023/01/28 12:41:40;;;;;;;10.95;7.57;;;;;;;;;;4979251;28;20187;-73
2023/01/28 12:44:10;;;;;;;10.30;7.15;;;;;;;;;;4981820;28;20278;-71
2023/01/28 12:46:41;;;;;;;12.20;7.38;;;;;;;;;;4984556;28;20187;-72
2023/01/28 12:49:10;;;;;;;7.07;6.28;;;;;;;;;;4989333;28;20184;-71
2023/01/28 12:51:44;;;;;;;9.32;6.97;;;;;;;;;;4993136;28;20207;-71
2023/01/28 12:54:17;;;;;;;9.32;6.90;;;;;;;;;;4991139;28;20223;-73
2023/01/28 12:56:46;;;;;;;7.85;6.25;;;;;;;;;;4988830;28;20196;-72
2023/01/28 12:59:14;;;;;;;7.25;6.38;;;;;;;;;;4993930;28;20227;-73
2023/01/28 13:01:43;;;;;;;9.05;6.10;;;;;;;;;;4982018;28;20203;-72
2023/01/28 13:04:14;;;;;;;9.10;6.90;;;;;;;;;;4977599;28;20230;-72
2023/01/28 13:06:43;;;;;;;11.57;8.55;;;;;;;;;;4977475;28;20183;-72
2023/01/28 13:09:17;;;;;;;10.05;7.22;;;;;;;;;;4977337;28;20322;-73
2023/01/28 13:11:44;;;;;;;10.13;7.03;;;;;;;;;;4977287;28;20198;-73
2023/01/28 13:14:12;;;;;;;9.85;7.13;;;;;;;;;;4977226;28;20227;-73
2023/01/28 13:16:39;;;;;;;8.88;6.93;;;;;;;;;;4976885;28;20547;-72
2023/01/28 13:19:08;;;;;;;6.43;5.25;;;;;;;;;;4977634;28;20228;-72
2023/01/28 13:21:35;;;;;;;9.35;6.85;;;;;;;;;;4977645;28;20204;-72
2023/01/28 13:24:24;;;;;;;10.00;7.68;;;;;;;;;;4977232;28;20730;-73
2023/01/28 13:26:55;;;;;;;8.27;6.63;;;;;;;;;;4973103;28;20207;-72
2023/01/28 13:29:29;;;;;;;10.70;7.28;;;;;;;;;;4977077;28;20188;-72
2023/01/28 13:31:57;;;;;;;8.73;7.30;;;;;;;;;;4976615;28;20187;-73
2023/01/28 13:34:31;;;;;;;9.20;6.95;;;;;;;;;;4976590;28;20227;-73
2023/01/28 13:36:59;;;;;;;9.95;7.53;;;;;;;;;;4976251;28;20215;-74
2023/01/28 13:39:27;;;;;;;8.35;6.85;;;;;;;;;;4976740;28;20227;-73
2023/01/28 13:41:56;;;;;;;12.43;8.00;;;;;;;;;;4977255;28;20231;-71
2023/01/28 13:44:28;;;;;;;7.50;6.30;;;;;;;;;;4977067;28;20223;-74
2023/01/28 13:46:56;;;;;;;13.18;8.32;;;;;;;;;;4977005;28;20180;-73
2023/01/28 13:49:26;;;;;;;12.73;8.18;;;;;;;;;;4977025;28;20226;-74
2023/01/28 13:51:58;;;;;;;10.45;7.85;;;;;;;;;;4976755;28;20195;-73
2023/01/28 13:54:25;;;;;;;8.25;6.35;;;;;;;;;;4976506;28;20633;-73
2023/01/28 13:57:05;;;;;;;9.38;7.22;;;;;;;;;;4976967;28;20207;-74
2023/01/28 13:59:40;;;;;;;9.70;7.05;;;;;;;;;;4976867;28;20207;-74
2023/01/28 14:02:32;;;;;;;11.95;7.75;;;;;;;;;;4976690;28;20696;-74
2023/01/28 14:05:23;;;;;;;9.48;6.85;;;;;;;;;;4976765;28;20652;-72
2023/01/28 14:08:00;;;;;;;8.50;6.45;;;;;;;;;;4977554;28;20196;-71
2023/01/28 14:10:32;;;;;;;8.23;5.95;;;;;;;;;;4976378;28;20658;-71
2023/01/28 14:13:07;;;;;;;7.03;6.07;;;;;;;;;;4976406;28;20192;-72
2023/01/28 14:15:49;;;;;;;7.47;6.10;;;;;;;;;;4976323;28;20584;-71
2023/01/28 14:18:21;;;;;;;8.10;5.93;;;;;;;;;;4974742;28;20210;-71
2023/01/28 14:20:48;;;;;;;7.38;5.72;;;;;;;;;;4976313;28;20212;-70
2023/01/28 14:23:16;;;;;;;7.80;5.60;;;;;;;;;;4976454;28;20223;-70
2023/01/28 14:25:52;;;;;;;9.15;7.00;;;;;;;;;;4976613;28;20596;-70
2023/01/28 14:28:24;;;;;;;7.22;6.03;;;;;;;;;;4976157;28;20183;-70
2023/01/28 14:30:55;;;;;;;9.27;6.45;;;;;;;;;;4976182;28;20242;-70
2023/01/28 14:33:22;;;;;;;8.15;6.65;;;;;;;;;;4976305;28;20230;-70
2023/01/28 14:35:50;;;;;;;7.75;6.63;;;;;;;;;;4975809;28;20675;-71
2023/01/28 14:38:18;;;;;;;9.50;7.05;;;;;;;;;;4977263;28;20290;-71
2023/01/28 14:40:45;;;;;;;6.28;5.68;;;;;;;;;;4977117;28;20337;-71
2023/01/28 14:43:15;;;;;;;7.97;6.80;;;;;;;;;;4977279;28;20231;-72
2023/01/28 14:45:53;;;;;;;8.48;6.40;;;;;;;;;;4980368;28;20210;-70
2023/01/28 14:48:25;;;;;;;9.13;6.97;;;;;;;;;;4981285;28;20764;-71
2023/01/28 14:51:06;;;;;;;8.20;6.40;;;;;;;;;;4976698;28;20250;-71
2023/01/28 14:53:40;;;;;;;10.02;7.10;;;;;;;;;;4976247;28;20714;-71
2023/01/28 14:56:13;;;;;;;10.88;7.20;;;;;;;;;;4976141;28;20187;-70
2023/01/28 14:58:43;;;;;;;7.85;7.05;;;;;;;;;;4975427;28;20636;-71
2023/01/28 15:01:20;;;;;;;9.38;7.38;;;;;;;;;;4975413;28;20230;-71
2023/01/28 15:03:47;;;;;;;11.75;6.82;;;;;;;;;;4975356;28;20274;-71
2023/01/28 15:06:15;;;;;;;9.25;6.50;;;;;;;;;;4975470;28;20214;-71
2023/01/28 15:08:43;;;;;;;6.45;5.40;;;;;;;;;;4975282;28;20628;-70
2023/01/28 15:11:12;;;;;;;7.22;5.72;;;;;;;;;;4975194;28;20199;-70
2023/01/28 15:13:41;;;;;;;7.63;6.20;;;;;;;;;;4974970;28;20230;-71
2023/01/28 15:16:08;;;;;;;9.10;6.88;;;;;;;;;;4975139;28;20214;-71
2023/01/28 15:18:38;;;;;;;7.97;6.25;;;;;;;;;;4975088;28;20215;-71
2023/01/28 15:21:05;;;;;;;9.13;7.00;;;;;;;;;;4974968;28;20223;-71
2023/01/28 15:23:34;;;;;;;8.05;6.15;;;;;;;;;;4975050;28;20227;-71
2023/01/28 15:26:05;;;;;;;7.70;6.85;;;;;;;;;;4974723;28;20235;-71
2023/01/28 15:28:33;;;;;;;8.13;6.38;;;;;;;;;;4974910;28;20187;-71
2023/01/28 15:31:00;;;;;;;11.95;7.85;;;;;;;;;;4974870;28;20246;-71
2023/01/28 15:33:27;;;;;;;11.73;7.30;;;;;;;;;;4974966;28;20223;-72
2023/01/28 15:35:56;;;;;;;8.35;7.03;;;;;;;;;;4974537;28;20215;-70
2023/01/28 15:38:24;;;;;;;8.93;6.90;;;;;;;;;;4974470;28;20666;-70
2023/01/28 15:40:55;;;;;;;10.45;6.75;;;;;;;;;;4976422;28;20214;-70
2023/01/28 15:43:24;;;;;;;7.43;6.35;;;;;;;;;;4978401;28;20227;-70
2023/01/28 15:45:54;;;;;;;7.22;6.28;;;;;;;;;;4978700;28;20199;-71
2023/01/28 15:48:21;;;;;;;10.38;7.45;;;;;;;;;;4978596;28;20509;-71
2023/01/28 15:50:48;;;;;;;9.52;6.97;;;;;;;;;;4978752;28;20199;-72
2023/01/28 15:53:17;;;;;;;8.70;7.43;;;;;;;;;;4978690;28;20227;-72
2023/01/28 15:55:45;;;;;;;8.40;6.70;;;;;;;;;;4979357;28;20188;-72
2023/01/28 15:58:29;;;;;;;8.80;7.38;;;;;;;;;;4978664;28;20184;-73
2023/01/28 16:01:03;;;;;;;7.75;6.07;;;;;;;;;;4978634;28;20255;-71
2023/01/28 16:03:32;;;;;;;8.85;6.85;;;;;;;;;;4978495;28;20227;-71
2023/01/28 16:06:01;;;;;;;9.13;7.32;;;;;;;;;;4978813;28;20266;-71
2023/01/28 16:08:31;;;;;;;9.05;6.80;;;;;;;;;;4978740;28;20203;-73
2023/01/28 16:10:58;;;;;;;7.60;6.80;;;;;;;;;;4978719;28;20188;-73
2023/01/28 16:13:27;;;;;;;9.10;7.32;;;;;;;;;;4978477;28;20278;-71
2023/01/28 16:15:55;;;;;;;9.00;6.97;;;;;;;;;;4978839;28;20207;-73
2023/01/28 16:18:27;;;;;;;10.27;7.40;;;;;;;;;;4978288;28;20199;-73
2023/01/28 16:20:54;;;;;;;9.20;7.00;;;;;;;;;;4978203;28;20211;-72
2023/01/28 16:23:23;;;;;;;9.02;7.03;;;;;;;;;;4977963;28;20231;-73
2023/01/28 16:26:00;;;;;;;9.70;7.57;;;;;;;;;;4977980;28;20208;-70
2023/01/28 16:28:29;;;;;;;8.82;7.07;;;;;;;;;;4977781;28;20568;-70
2023/01/28 16:30:56;;;;;;;10.40;7.75;;;;;;;;;;4977962;28;20246;-70
2023/01/28 16:33:23;;;;;;;10.88;7.63;;;;;;;;;;4978562;28;20351;-73
2023/01/28 16:35:51;;;;;;;11.95;8.45;;;;;;;;;;4977826;28;20636;-72
2023/01/28 16:38:18;;;;;;;10.23;7.85;;;;;;;;;;4978310;28;20200;-72
2023/01/28 16:40:45;;;;;;;12.57;8.93;;;;;;;;;;4978323;28;20223;-73
2023/01/28 16:43:15;;;;;;;15.93;9.43;;;;;;;;;;4977842;28;20227;-73
2023/01/28 16:45:43;;;;;;;11.00;8.55;;;;;;;;;;4978039;28;20203;-73
2023/01/28 16:48:10;;;;;;;12.40;9.00;;;;;;;;;;4978253;28;20207;-73
2023/01/28 16:50:39;;;;;;;11.60;8.07;;;;;;;;;;4978082;28;20195;-73
2023/01/28 16:53:06;;;;;;;13.45;9.52;;;;;;;;;;4976306;28;20667;-72
2023/01/28 16:55:33;;;;;;;13.02;9.05;;;;;;;;;;4977540;28;20207;-73
2023/01/28 16:58:00;;;;;;;14.70;10.52;;;;;;;;;;4977066;28;20199;-72
2023/01/28 17:00:32;;;;;;;15.27;9.43;;;;;;;;;;4977741;28;20219;-73
2023/01/28 17:02:59;;;;;;;13.45;9.55;;;;;;;;;;4977717;28;20187;-72
2023/01/28 17:05:26;;;;;;;15.32;8.98;;;;;;;;;;4977502;28;20203;-72
2023/01/28 17:07:58;;;;;;;14.43;9.85;;;;;;;;;;4977287;28;20246;-72
2023/01/28 17:10:25;;;;;;;11.48;8.55;;;;;;;;;;4977250;28;20711;-72
2023/01/28 17:12:53;;;;;;;11.77;8.50;;;;;;;;;;4977373;28;20203;-73
2023/01/28 17:15:20;;;;;;;11.45;8.30;;;;;;;;;;4977241;28;20207;-73
2023/01/28 17:17:49;;;;;;;10.63;7.80;;;;;;;;;;4977479;28;20207;-73
2023/01/28 17:20:16;;;;;;;8.38;7.15;;;;;;;;;;4977210;28;20230;-73
2023/01/28 17:22:43;;;;;;;10.50;8.00;;;;;;;;;;4977019;28;20207;-73
2023/01/28 17:25:11;;;;;;;12.10;8.50;;;;;;;;;;4977393;28;20234;-73
2023/01/28 17:27:38;;;;;;;11.80;8.32;;;;;;;;;;4976916;28;20629;-74
2023/01/28 17:30:05;;;;;;;12.02;8.75;;;;;;;;;;4977096;28;20246;-74
2023/01/28 17:32:33;;;;;;;8.55;7.22;;;;;;;;;;4978028;28;20620;-75
2023/01/28 17:35:02;;;;;;;10.13;7.82;;;;;;;;;;4977202;28;20242;-74
2023/01/28 17:37:29;;;;;;;11.32;7.72;;;;;;;;;;4980776;28;20269;-74
2023/01/28 17:39:56;;;;;;;11.75;8.40;;;;;;;;;;4982375;28;20207;-75
2023/01/28 17:42:23;;;;;;;12.27;8.27;;;;;;;;;;4982254;28;20210;-74
2023/01/28 17:44:50;;;;;;;11.13;7.90;;;;;;;;;;4982066;28;20228;-74
2023/01/28 17:47:17;;;;;;;9.23;7.63;;;;;;;;;;4981695;28;20203;-74
2023/01/28 17:49:44;;;;;;;9.70;7.05;;;;;;;;;;4981386;28;20207;-74
2023/01/28 17:52:12;;;;;;;12.35;8.60;;;;;;;;;;4978334;28;20207;-75
2023/01/28 17:54:39;;;;;;;12.13;8.23;;;;;;;;;;4978509;28;20234;-74
2023/01/28 17:57:06;;;;;;;10.43;8.00;;;;;;;;;;4978898;28;20200;-73
2023/01/28 17:59:33;;;;;;;11.45;8.32;;;;;;;;;;4977278;28;20254;-73
2023/01/28 18:02:00;;;;;;;13.70;9.25;;;;;;;;;;4976739;28;20227;-73
2023/01/28 18:04:27;;;;;;;13.00;8.77;;;;;;;;;;4977750;28;20223;-73
2023/01/28 18:06:55;;;;;;;15.80;10.10;;;;;;;;;;4977247;28;20203;-74
2023/01/28 18:09:23;;;;;;;13.05;9.63;;;;;;;;;;4977129;28;20199;-74
2023/01/28 18:11:50;;;;;;;19.63;12.00;;;;;;;;;;4976317;28;20667;-74
2023/01/28 18:14:17;;;;;;;17.88;11.93;;;;;;;;;;4976537;28;20227;-74
2023/01/28 18:16:44;;;;;;;39.85;20.85;;;;;;;;;;4976401;28;20206;-74
2023/01/28 18:19:11;;;;;;;26.05;14.75;;;;;;;;;;4976481;28;20245;-73
2023/01/28 18:21:40;;;;;;;21.73;12.52;;;;;;;;;;4976670;28;20219;-73
2023/01/28 18:24:08;;;;;;;18.90;11.07;;;;;;;;;;4976423;28;20227;-73
2023/01/28 18:26:37;;;;;;;17.83;10.38;;;;;;;;;;4976277;28;20295;-74
2023/01/28 18:29:04;;;;;;;17.60;11.13;;;;;;;;;;4976066;28;20200;-73
2023/01/28 18:31:31;;;;;;;20.45;11.48;;;;;;;;;;4975945;28;20204;-73
2023/01/28 18:33:58;;;;;;;18.00;10.98;;;;;;;;;;4975787;28;20319;-74
2023/01/28 18:36:25;;;;;;;17.92;11.38;;;;;;;;;;4975513;28;20675;-74
2023/01/28 18:38:53;;;;;;;17.67;11.38;;;;;;;;;;4976009;28;20206;-74
2023/01/28 18:41:20;;;;;;;21.63;12.23;;;;;;;;;;4975677;28;20223;-74
2023/01/28 18:43:48;;;;;;;19.25;12.65;;;;;;;;;;4975921;28;20219;-73
2023/01/28 18:46:18;;;;;;;18.23;11.30;;;;;;;;;;4975972;28;20206;-74
2023/01/28 18:48:45;;;;;;;16.15;10.95;;;;;;;;;;4975653;28;20230;-73
2023/01/28 18:51:13;;;;;;;19.23;12.10;;;;;;;;;;4975651;28;20659;-74
2023/01/28 18:53:40;;;;;;;21.52;13.63;;;;;;;;;;4975779;28;20227;-74
2023/01/28 18:56:08;;;;;;;24.20;14.48;;;;;;;;;;4976688;28;20632;-74
2023/01/28 18:58:35;;;;;;;22.60;13.23;;;;;;;;;;4975912;28;20249;-72
2023/01/28 19:01:06;;;;;;;23.02;12.93;;;;;;;;;;4975919;28;20227;-72
2023/01/28 19:03:33;;;;;;;19.55;11.73;;;;;;;;;;4976067;28;20223;-73
2023/01/28 19:06:03;;;;;;;16.98;11.68;;;;;;;;;;4975686;28;20238;-73
2023/01/28 19:08:30;;;;;;;15.82;10.38;;;;;;;;;;4975503;28;20203;-73
2023/01/28 19:10:57;;;;;;;18.65;12.27;;;;;;;;;;4976637;28;20203;-73
2023/01/28 19:13:24;;;;;;;21.00;12.20;;;;;;;;;;4976005;28;20259;-74
2023/01/28 19:15:51;;;;;;;15.65;10.18;;;;;;;;;;4975969;28;20203;-74
2023/01/28 19:18:20;;;;;;;19.10;12.02;;;;;;;;;;4975855;28;20207;-73
2023/01/28 19:20:47;;;;;;;19.55;13.15;;;;;;;;;;4975784;28;20215;-73
2023/01/28 19:23:14;;;;;;;18.60;11.23;;;;;;;;;;4975939;28;20234;-74
2023/01/28 19:25:41;;;;;;;19.67;12.40;;;;;;;;;;4976103;28;20203;-74
2023/01/28 19:28:08;;;;;;;16.08;10.38;;;;;;;;;;4975938;28;20283;-74
2023/01/28 19:30:36;;;;;;;19.42;10.77;;;;;;;;;;4976013;28;20359;-74
2023/01/28 19:33:03;;;;;;;18.23;11.43;;;;;;;;;;4975437;28;20203;-74
2023/01/28 19:35:31;;;;;;;17.27;10.35;;;;;;;;;;4975128;28;20214;-72
2023/01/28 19:37:58;;;;;;;18.67;11.48;;;;;;;;;;4975159;28;20200;-73
2023/01/28 19:40:25;;;;;;;20.83;12.38;;;;;;;;;;4974754;28;20203;-69
2023/01/28 19:42:53;;;;;;;23.75;11.45;;;;;;;;;;4974967;28;20207;-72
2023/01/28 19:45:20;;;;;;;21.88;12.95;;;;;;;;;;4975015;28;20211;-71
2023/01/28 19:47:47;;;;;;;18.55;11.98;;;;;;;;;;4975337;28;20214;-71
2023/01/28 19:50:14;;;;;;;19.52;12.73;;;;;;;;;;4975268;28;20250;-71
2023/01/28 19:52:42;;;;;;;18.08;11.75;;;;;;;;;;4975080;28;20199;-71
2023/01/28 19:55:10;;;;;;;16.50;10.07;;;;;;;;;;4975014;28;20227;-72
2023/01/28 19:57:37;;;;;;;12.85;8.95;;;;;;;;;;4975064;28;20207;-70
2023/01/28 20:00:04;;;;;;;13.23;9.10;;;;;;;;;;4974927;28;20207;-73
2023/01/28 20:02:31;;;;;;;12.88;8.95;;;;;;;;;;4974830;28;20239;-72
2023/01/28 20:04:58;;;;;;;12.52;8.18;;;;;;;;;;4974634;28;20306;-72
2023/01/28 20:07:25;;;;;;;11.60;7.80;;;;;;;;;;4974655;28;20199;-72
2023/01/28 20:09:54;;;;;;;14.20;9.40;;;;;;;;;;4974546;28;20206;-71
2023/01/28 20:12:21;;;;;;;12.15;8.57;;;;;;;;;;4974791;28;20195;-71
2023/01/28 20:14:48;;;;;;;12.63;8.80;;;;;;;;;;4974523;28;20277;-71
2023/01/28 20:17:15;;;;;;;13.30;9.05;;;;;;;;;;4979015;28;20610;-71
2023/01/28 20:19:42;;;;;;;15.05;9.15;;;;;;;;;;4988906;28;20204;-71
2023/01/28 20:22:09;;;;;;;16.73;8.82;;;;;;;;;;4990537;28;20223;-72
2023/01/28 20:24:36;;;;;;;9.55;7.07;;;;;;;;;;4989283;28;20686;-72
2023/01/28 20:27:04;;;;;;;12.10;8.10;;;;;;;;;;4984378;28;20207;-73
2023/01/28 20:29:31;;;;;;;10.60;7.68;;;;;;;;;;4978071;28;20203;-71
2023/01/28 20:31:58;;;;;;;9.82;7.22;;;;;;;;;;4978133;28;20207;-71
2023/01/28 20:34:26;;;;;;;11.40;7.45;;;;;;;;;;4977877;28;20223;-71
2023/01/28 20:36:53;;;;;;;13.18;8.38;;;;;;;;;;4977645;28;20211;-71
2023/01/28 20:39:20;;;;;;;11.45;7.70;;;;;;;;;;4977709;28;20207;-71
2023/01/28 20:41:47;;;;;;;8.90;6.38;;;;;;;;;;4977556;28;20220;-71
2023/01/28 20:44:15;;;;;;;11.88;7.95;;;;;;;;;;4977596;28;20223;-71
2023/01/28 20:46:42;;;;;;;11.38;7.93;;;;;;;;;;4977433;28;20694;-71
2023/01/28 20:49:09;;;;;;;11.60;6.97;;;;;;;;;;4977676;28;20250;-71
2023/01/28 20:51:38;;;;;;;8.68;6.57;;;;;;;;;;4977824;28;20207;-73
2023/01/28 20:54:05;;;;;;;11.38;7.13;;;;;;;;;;4977863;28;20230;-72
2023/01/28 20:56:32;;;;;;;11.80;7.88;;;;;;;;;;4977490;28;20207;-72
2023/01/28 20:59:00;;;;;;;13.18;7.45;;;;;;;;;;4977461;28;20214;-72
2023/01/28 21:01:30;;;;;;;10.57;7.82;;;;;;;;;;4977470;28;20219;-71
2023/01/28 21:03:57;;;;;;;10.52;7.63;;;;;;;;;;4977414;28;20234;-71
2023/01/28 21:06:24;;;;;;;10.73;6.53;;;;;;;;;;4977516;28;20207;-72
2023/01/28 21:08:52;;;;;;;10.90;7.90;;;;;;;;;;4977356;28;20238;-71
2023/01/28 21:11:19;;;;;;;13.10;7.07;;;;;;;;;;4977427;28;20203;-72
2023/01/28 21:13:46;;;;;;;8.95;6.68;;;;;;;;;;4977127;28;20227;-71
2023/01/28 21:16:13;;;;;;;9.02;7.03;;;;;;;;;;4977169;28;20617;-71
2023/01/28 21:18:42;;;;;;;14.32;8.40;;;;;;;;;;4976845;28;20203;-69
2023/01/28 21:21:12;;;;;;;11.40;7.22;;;;;;;;;;4976902;28;20250;-72